Wetterdaten: Woche 04.05.26 - 10.05.26 (KW19)
Datum Zeit Temp. A. Feuchte A. Luftdruck Niederschlag Windgeschw. Windrichtung Sonnenschein Taupunkt Windchill Windböen
04.05.2026 00:00 18,2 °C 31 % 1016,1 hPa 0,0 l/m² 3,5 km/h (1 Bft) S 0,00 h 0,7 °C 18,2 °C 5,8 km/h (2 Bft)
04.05.2026 01:00 17,9 °C 30 % 1015,4 hPa 0,0 l/m² 3,7 km/h (1 Bft) W-SW 0,00 h 0,2 °C 17,9 °C 4,8 km/h (1 Bft)
04.05.2026 02:00 17,4 °C 32 % 1015,3 hPa 0,0 l/m² 3,1 km/h (1 Bft) S 0,00 h 0,5 °C 17,4 °C 3,9 km/h (1 Bft)
04.05.2026 03:00 16,8 °C 33 % 1015,1 hPa 0,0 l/m² 1,6 km/h (1 Bft) S 0,00 h 0,3 °C 16,8 °C 2,3 km/h (1 Bft)
04.05.2026 04:00 16,1 °C 34 % 1015,3 hPa 0,0 l/m² 0,8 km/h (0 Bft) SW 0,00 h 0,2 °C 16,1 °C 1,1 km/h (0 Bft)
04.05.2026 05:00 14,7 °C 36 % 1015,0 hPa 0,0 l/m² 0,5 km/h (0 Bft) S 0,00 h -0,3 °C 14,7 °C 0,6 km/h (0 Bft)
04.05.2026 06:00 13,9 °C 41 % 1014,6 hPa 0,0 l/m² 0,5 km/h (0 Bft) O-NO 0,00 h 0,9 °C 13,9 °C 0,7 km/h (0 Bft)
04.05.2026 07:00 17,5 °C 37 % 1014,7 hPa 0,0 l/m² 2,6 km/h (1 Bft) SO 0,00 h 2,7 °C 17,5 °C 3,8 km/h (1 Bft)
04.05.2026 08:00 19,4 °C 35 % 1014,7 hPa 0,0 l/m² 1,4 km/h (1 Bft) W-SW 0,00 h 3,7 °C 19,4 °C 1,9 km/h (1 Bft)
04.05.2026 09:00 20,5 °C 37 % 1015,1 hPa 0,0 l/m² 0,5 km/h (0 Bft) N 0,00 h 5,3 °C 20,5 °C 0,8 km/h (0 Bft)
04.05.2026 10:00 22,7 °C 36 % 1015,6 hPa 0,0 l/m² 1,3 km/h (1 Bft) SW 0,00 h 6,6 °C 22,7 °C 2,1 km/h (1 Bft)
04.05.2026 11:00 24,5 °C 33 % 1015,4 hPa 0,0 l/m² 2,3 km/h (1 Bft) S 0,00 h 7,2 °C 24,5 °C 2,9 km/h (1 Bft)
04.05.2026 12:00 25,3 °C 31 % 1015,2 hPa 0,0 l/m² 3,1 km/h (1 Bft) W-SW 0,00 h 7,0 °C 25,3 °C 4,6 km/h (1 Bft)
04.05.2026 13:00 26,5 °C 29 % 1014,7 hPa 0,0 l/m² 3,1 km/h (1 Bft) SW 0,40 h 6,8 °C 26,5 °C 4,0 km/h (1 Bft)
04.05.2026 14:00 27,3 °C 26 % 1014,2 hPa 0,0 l/m² 3,5 km/h (1 Bft) W-SW 1,00 h 6,1 °C 27,3 °C 4,2 km/h (1 Bft)
04.05.2026 15:00 27,7 °C 25 % 1014,0 hPa 0,0 l/m² 3,2 km/h (1 Bft) S 1,00 h 5,8 °C 27,7 °C 3,8 km/h (1 Bft)
04.05.2026 16:00 27,7 °C 25 % 1013,6 hPa 0,0 l/m² 3,1 km/h (1 Bft) S 1,00 h 5,9 °C 27,7 °C 4,0 km/h (1 Bft)
04.05.2026 17:00 27,3 °C 25 % 1013,3 hPa 0,0 l/m² 2,3 km/h (1 Bft) SW 1,00 h 5,5 °C 27,3 °C 2,7 km/h (1 Bft)
04.05.2026 18:00 26,5 °C 25 % 1013,2 hPa 0,0 l/m² 1,8 km/h (1 Bft) W-SW 1,00 h 4,9 °C 26,5 °C 2,8 km/h (1 Bft)
04.05.2026 19:00 24,5 °C 25 % 1013,1 hPa 0,0 l/m² 1,1 km/h (1 Bft) S-SW 0,37 h 3,2 °C 24,5 °C 1,7 km/h (1 Bft)
04.05.2026 20:00 22,6 °C 26 % 1013,3 hPa 0,0 l/m² 1,4 km/h (1 Bft) W-SW 0,00 h 2,4 °C 22,6 °C 2,1 km/h (1 Bft)
04.05.2026 21:00 21,7 °C 30 % 1013,4 hPa 0,0 l/m² 1,8 km/h (1 Bft) W-SW 0,00 h 3,2 °C 21,7 °C 2,2 km/h (1 Bft)
04.05.2026 22:00 20,8 °C 30 % 1013,3 hPa 0,0 l/m² 1,2 km/h (1 Bft) SO 0,00 h 2,5 °C 20,8 °C 1,8 km/h (1 Bft)
04.05.2026 23:00 18,1 °C 32 % 1013,0 hPa 0,0 l/m² 0,2 km/h (0 Bft) N 0,00 h 1,1 °C 18,1 °C 0,2 km/h (0 Bft)
05.05.2026 00:00 15,9 °C 35 % 1012,5 hPa 0,0 l/m² 0,2 km/h (0 Bft) N 0,00 h 0,4 °C 15,9 °C 0,1 km/h (0 Bft)
05.05.2026 01:00 14,7 °C 38 % 1012,0 hPa 0,0 l/m² 0,3 km/h (0 Bft) N 0,00 h 0,5 °C 14,7 °C 0,5 km/h (0 Bft)
05.05.2026 02:00 13,8 °C 40 % 1011,4 hPa 0,0 l/m² 0,2 km/h (0 Bft) N 0,00 h 0,3 °C 13,8 °C 0,5 km/h (0 Bft)
05.05.2026 03:00 13,8 °C 40 % 1010,6 hPa 0,0 l/m² 0,2 km/h (0 Bft) N 0,00 h 0,4 °C 13,8 °C 0,3 km/h (0 Bft)
05.05.2026 04:00 13,5 °C 39 % 1010,3 hPa 0,0 l/m² 0,2 km/h (0 Bft) N 0,00 h -0,1 °C 13,5 °C 0,4 km/h (0 Bft)
05.05.2026 05:00 12,7 °C 40 % 1010,0 hPa 0,0 l/m² 0,0 km/h (0 Bft) N 0,00 h -0,6 °C 12,7 °C 0,2 km/h (0 Bft)
05.05.2026 06:00 12,2 °C 42 % 1009,9 hPa 0,0 l/m² 0,0 km/h (0 Bft) N 0,00 h -0,2 °C 12,2 °C 0,3 km/h (0 Bft)
05.05.2026 07:00 12,4 °C 46 % 1009,8 hPa 0,0 l/m² 0,0 km/h (0 Bft) N 0,00 h 1,1 °C 12,4 °C 0,0 km/h (0 Bft)
05.05.2026 08:00 12,9 °C 48 % 1009,8 hPa 0,0 l/m² 0,0 km/h (0 Bft) N 0,00 h 2,1 °C 12,9 °C 0,0 km/h (0 Bft)
05.05.2026 09:00 15,5 °C 49 % 1009,8 hPa 0,0 l/m² 0,6 km/h (0 Bft) W 0,00 h 5,0 °C 15,5 °C 1,0 km/h (0 Bft)
05.05.2026 10:00 20,0 °C 47 % 1009,4 hPa 0,0 l/m² 1,3 km/h (1 Bft) SW 0,00 h 8,4 °C 20,0 °C 2,0 km/h (1 Bft)
05.05.2026 11:00 24,2 °C 38 % 1009,1 hPa 0,0 l/m² 2,7 km/h (1 Bft) SW 0,00 h 8,9 °C 24,2 °C 4,2 km/h (1 Bft)
05.05.2026 12:00 25,9 °C 31 % 1008,9 hPa 0,0 l/m² 4,4 km/h (1 Bft) S 0,00 h 7,2 °C 25,9 °C 5,5 km/h (1 Bft)
05.05.2026 13:00 26,8 °C 27 % 1008,7 hPa 0,0 l/m² 4,4 km/h (1 Bft) S 0,33 h 6,0 °C 26,8 °C 5,8 km/h (1 Bft)
05.05.2026 14:00 27,4 °C 28 % 1008,6 hPa 0,0 l/m² 4,1 km/h (1 Bft) S 1,00 h 7,4 °C 27,4 °C 5,8 km/h (2 Bft)
05.05.2026 15:00 26,9 °C 29 % 1008,3 hPa 0,0 l/m² 4,1 km/h (1 Bft) W-SW 1,00 h 7,6 °C 26,9 °C 5,5 km/h (1 Bft)
05.05.2026 16:00 24,3 °C 31 % 1008,6 hPa 0,0 l/m² 3,9 km/h (1 Bft) W-SW 0,27 h 6,0 °C 24,3 °C 4,4 km/h (1 Bft)
05.05.2026 17:00 23,2 °C 32 % 1008,2 hPa 0,0 l/m² 4,0 km/h (1 Bft) W-SW 0,53 h 5,6 °C 23,2 °C 5,4 km/h (1 Bft)
05.05.2026 18:00 22,0 °C 32 % 1007,8 hPa 0,0 l/m² 4,6 km/h (1 Bft) NW 0,43 h 4,5 °C 22,0 °C 5,9 km/h (2 Bft)
05.05.2026 19:00 20,2 °C 34 % 1007,6 hPa 0,0 l/m² 4,8 km/h (1 Bft) SW 0,00 h 3,7 °C 20,2 °C 6,3 km/h (2 Bft)
05.05.2026 20:00 19,3 °C 36 % 1007,3 hPa 0,0 l/m² 4,9 km/h (1 Bft) W-SW 0,00 h 3,7 °C 19,3 °C 7,7 km/h (2 Bft)
05.05.2026 21:00 18,5 °C 38 % 1007,1 hPa 0,0 l/m² 7,7 km/h (2 Bft) W 0,00 h 3,8 °C 18,5 °C 10,8 km/h (2 Bft)
05.05.2026 22:00 17,9 °C 39 % 1006,9 hPa 0,0 l/m² 8,1 km/h (2 Bft) W-SW 0,00 h 3,8 °C 17,9 °C 10,5 km/h (2 Bft)
05.05.2026 23:00 17,6 °C 39 % 1007,0 hPa 0,0 l/m² 5,9 km/h (2 Bft) W-SW 0,00 h 3,5 °C 17,6 °C 7,8 km/h (2 Bft)
06.05.2026 00:00 16,9 °C 39 % 1007,5 hPa 0,0 l/m² 1,4 km/h (1 Bft) NW 0,00 h 3,0 °C 16,9 °C 2,6 km/h (1 Bft)
06.05.2026 01:00 16,3 °C 40 % 1007,9 hPa 0,0 l/m² 0,9 km/h (0 Bft) NW 0,00 h 2,7 °C 16,3 °C 1,5 km/h (1 Bft)
06.05.2026 02:00 16,2 °C 41 % 1008,1 hPa 0,0 l/m² 0,1 km/h (0 Bft) N 0,00 h 2,9 °C 16,2 °C 0,2 km/h (0 Bft)
06.05.2026 03:00 14,8 °C 44 % 1008,8 hPa 0,0 l/m² 0,1 km/h (0 Bft) N 0,00 h 2,7 °C 14,8 °C 0,1 km/h (0 Bft)
06.05.2026 04:00 13,8 °C 47 % 1009,2 hPa 0,0 l/m² 0,0 km/h (0 Bft) N 0,00 h 2,7 °C 13,8 °C 0,0 km/h (0 Bft)
06.05.2026 05:00 13,3 °C 50 % 1009,6 hPa 0,0 l/m² 0,0 km/h (0 Bft) N 0,00 h 3,0 °C 13,3 °C 0,0 km/h (0 Bft)
06.05.2026 06:00 13,3 °C 51 % 1009,7 hPa 0,0 l/m² 0,0 km/h (0 Bft) N 0,00 h 3,4 °C 13,3 °C 0,0 km/h (0 Bft)
06.05.2026 07:00 14,5 °C 55 % 1009,9 hPa 0,0 l/m² 0,0 km/h (0 Bft) N 0,00 h 5,5 °C 14,5 °C 0,0 km/h (0 Bft)
06.05.2026 08:00 16,8 °C 55 % 1009,8 hPa 0,0 l/m² 0,1 km/h (0 Bft) N 0,00 h 7,6 °C 16,8 °C 0,1 km/h (0 Bft)
06.05.2026 09:00 19,0 °C 51 % 1010,1 hPa 0,0 l/m² 0,3 km/h (0 Bft) N 0,00 h 8,6 °C 19,0 °C 0,6 km/h (0 Bft)
06.05.2026 10:00 21,4 °C 46 % 1009,5 hPa 0,0 l/m² 1,1 km/h (1 Bft) S 0,00 h 9,4 °C 21,4 °C 2,0 km/h (1 Bft)
06.05.2026 11:00 23,2 °C 43 % 1009,3 hPa 0,0 l/m² 2,0 km/h (1 Bft) SW 0,00 h 10,1 °C 23,2 °C 2,9 km/h (1 Bft)
06.05.2026 12:00 24,7 °C 38 % 1008,9 hPa 0,0 l/m² 3,0 km/h (1 Bft) S 0,00 h 9,4 °C 24,7 °C 3,9 km/h (1 Bft)
06.05.2026 13:00 25,0 °C 36 % 1008,2 hPa 0,0 l/m² 3,6 km/h (1 Bft) S 0,20 h 8,8 °C 25,0 °C 4,6 km/h (1 Bft)
06.05.2026 14:00 25,0 °C 36 % 1007,9 hPa 0,0 l/m² 3,9 km/h (1 Bft) SW 0,73 h 8,9 °C 25,0 °C 5,3 km/h (1 Bft)
06.05.2026 15:00 24,9 °C 35 % 1008,0 hPa 0,0 l/m² 4,6 km/h (1 Bft) S 1,00 h 8,5 °C 24,9 °C 6,0 km/h (2 Bft)
06.05.2026 16:00 23,7 °C 37 % 1008,0 hPa 0,0 l/m² 3,9 km/h (1 Bft) S 0,57 h 8,1 °C 23,7 °C 5,5 km/h (1 Bft)
06.05.2026 17:00 23,5 °C 38 % 1007,5 hPa 0,0 l/m² 3,4 km/h (1 Bft) S 0,93 h 8,4 °C 23,5 °C 4,8 km/h (1 Bft)
06.05.2026 18:00 22,1 °C 39 % 1007,2 hPa 0,0 l/m² 3,2 km/h (1 Bft) SW 0,00 h 7,5 °C 22,1 °C 4,8 km/h (1 Bft)
06.05.2026 19:00 20,5 °C 40 % 1007,2 hPa 0,0 l/m² 4,4 km/h (1 Bft) SW 0,00 h 6,6 °C 20,5 °C 6,1 km/h (2 Bft)
06.05.2026 20:00 19,5 °C 43 % 1006,9 hPa 0,0 l/m² 3,8 km/h (1 Bft) W-SW 0,00 h 6,5 °C 19,5 °C 5,4 km/h (1 Bft)
06.05.2026 21:00 18,7 °C 45 % 1007,7 hPa 0,0 l/m² 5,6 km/h (1 Bft) W-SW 0,00 h 6,5 °C 18,7 °C 7,6 km/h (2 Bft)
06.05.2026 22:00 18,1 °C 46 % 1007,8 hPa 0,0 l/m² 4,9 km/h (1 Bft) NW 0,00 h 6,3 °C 18,1 °C 7,9 km/h (2 Bft)
06.05.2026 23:00 17,9 °C 46 % 1008,2 hPa 0,0 l/m² 6,1 km/h (2 Bft) W-SW 0,00 h 6,0 °C 17,9 °C 7,9 km/h (2 Bft)
07.05.2026 00:00 18,0 °C 45 % 1008,7 hPa 0,0 l/m² 1,5 km/h (1 Bft) N-NO 0,00 h 5,9 °C 18,0 °C 0,4 km/h (0 Bft)
Min-Datum _ 05.05.26 04.05.26 06.05.26 - 04.05.26 - - 05.05.26 05.05.26 04.05.26
_ Min-Zeit 06:28 14:40 20:14 - 05:32 - - 05:14 06:28 02:46
Minimum _ 12,0 °C 25 % 1006,6 hPa - 0,0 km/h (0 Bft) - - -1,0 °C 12,0 °C 0,0 km/h (0 Bft)
Max-Datum _ 04.05.26 06.05.26 04.05.26 04.05.26 05.05.26 - 04.05.26 06.05.26 04.05.26 05.05.26
_ Max-Zeit 15:56 07:14 00:00 00:00 21:46 - 13:36 11:52 15:56 21:46
Maximum _ 28,1 °C 56 % 1016,5 hPa 0,0 l/m² 9,2 km/h
W (2 Bft)
- 0,02 h 10,7 °C 28,1 °C 25,6 km/h
W (4 Bft)
Durchschnitt _ 19,8 °C 37 % 1010,7 hPa #0,0 l/m² 2,4 km/h (1 Bft) W-SW #12:46 h 4,5 °C 19,8 °C 3,2 km/h (1 Bft)